Terminal Aerodrome Forecast
Issued by NWS Grand Forks, ND

Home | Current Version | Previous Version | Text Only | Print | Product List | Glossary Off
Versions: 1 2 3 4 5 6 7 8 9 10 11 12 13 14 15 16 17 18 19 20

000
FTUS43 KFGF 132328
TAFFAR
TAF
KFAR 132328Z 1400/1424 15005KT P6SM FEW250
     FM141100 18011KT P6SM BKN030
     FM141600 21010KT P6SM OVC020
     FM141700 25011KT P6SM OVC015
     FM141800 29011KT P6SM OVC015
     FM142100 34017G26KT 5SM BLSN BKN015
     FM142200 34017G25KT P6SM BKN015
     FM142300 34015G23KT P6SM BKN030=

USA.gov is the U.S. government's official web portal to all federal, state and local government web resources and services.